Time;durP1;ratioP1;P1;durP2;ratioP2;P2;SDS_P1;SDS_P2;PMS_P1;PMS_P2;Temp;Humidity;BMP_temperature;BMP_pressure;BME280_temperature;BME280_humidity;BME280_pressure;Samples;Min_cycle;Max_cycle;Signal;HPM_P1;HPM_P2
2021/09/26 00:00:23;;;;;;;1.95;1.05;;;15.40;88.50;;;;;;4862921;29;20128;-79
2021/09/26 00:02:48;;;;;;;1.13;1.02;;;15.40;88.50;;;;;;4847973;29;20055;-79
2021/09/26 00:05:14;;;;;;;1.90;1.20;;;15.30;88.50;;;;;;4847480;29;20508;-79
2021/09/26 00:07:40;;;;;;;2.15;1.40;;;15.30;88.50;;;;;;4847386;29;20057;-79
2021/09/26 00:10:10;;;;;;;1.27;0.95;;;15.30;88.60;;;;;;4832309;29;20045;-79
2021/09/26 00:12:37;;;;;;;1.58;1.17;;;15.30;88.70;;;;;;4847592;29;20041;-79
2021/09/26 00:15:06;;;;;;;1.30;0.90;;;15.30;88.70;;;;;;4832505;29;20049;-79
2021/09/26 00:17:32;;;;;;;1.30;1.10;;;15.30;88.70;;;;;;4879457;29;20053;-79
2021/09/26 00:19:58;;;;;;;2.30;1.30;;;15.20;88.60;;;;;;4846890;29;20176;-79
2021/09/26 00:22:24;;;;;;;1.73;0.98;;;15.30;88.70;;;;;;4862833;29;20128;-79
2021/09/26 00:24:50;;;;;;;2.13;1.27;;;15.20;88.60;;;;;;4862922;29;20049;-78
2021/09/26 00:27:16;;;;;;;2.78;1.60;;;15.30;88.70;;;;;;4879518;29;20132;-80
2021/09/26 00:29:42;;;;;;;3.67;1.48;;;15.20;88.60;;;;;;4847552;29;20101;-79
2021/09/26 00:32:08;;;;;;;1.77;1.15;;;15.20;88.70;;;;;;4832072;29;20048;-78
2021/09/26 00:34:35;;;;;;;1.83;1.15;;;15.10;88.70;;;;;;4850621;29;20065;-79
2021/09/26 00:37:01;;;;;;;2.17;1.40;;;15.10;88.80;;;;;;4881054;29;20068;-79
2021/09/26 00:39:27;;;;;;;2.78;1.40;;;15.10;88.80;;;;;;4861988;29;20104;-79
2021/09/26 00:41:52;;;;;;;2.08;1.40;;;15.10;88.90;;;;;;4847112;29;20472;-79
2021/09/26 00:44:18;;;;;;;1.42;0.98;;;15.00;88.80;;;;;;4862499;29;20044;-79
2021/09/26 00:46:44;;;;;;;1.58;1.15;;;15.00;88.90;;;;;;4879120;29;20481;-79
2021/09/26 00:49:11;;;;;;;1.48;1.00;;;15.00;89.00;;;;;;4847316;29;20076;-79
2021/09/26 00:51:37;;;;;;;1.08;0.82;;;15.00;89.00;;;;;;4863280;29;20045;-79
2021/09/26 00:54:03;;;;;;;1.52;1.02;;;14.90;89.00;;;;;;4878860;29;20053;-79
2021/09/26 00:56:31;;;;;;;1.70;1.17;;;14.90;89.80;;;;;;4862029;29;20076;-79
2021/09/26 00:58:57;;;;;;;1.73;1.00;;;14.80;89.10;;;;;;4862223;29;20056;-79
2021/09/26 01:01:23;;;;;;;1.55;1.13;;;14.80;89.20;;;;;;4847141;29;20101;-78
2021/09/26 01:03:49;;;;;;;1.95;1.00;;;14.90;89.20;;;;;;4846894;29;20048;-79
2021/09/26 01:06:55;;;;;;;2.65;1.40;;;14.80;89.10;;;;;;4861850;29;20052;-79
2021/09/26 01:09:28;;;;;;;2.03;1.23;;;14.80;89.10;;;;;;4864747;29;20037;-79
2021/09/26 01:12:24;;;;;;;2.08;1.33;;;14.80;89.10;;;;;;4862104;29;20495;-78
2021/09/26 01:15:12;;;;;;;1.35;1.00;;;14.80;89.20;;;;;;4861786;29;20048;-79
2021/09/26 01:17:49;;;;;;;1.42;1.02;;;14.80;89.20;;;;;;4863321;29;20045;-79
2021/09/26 01:20:38;;;;;;;1.27;0.98;;;14.70;89.10;;;;;;4862864;29;20108;-79
2021/09/26 01:23:34;;;;;;;1.27;0.90;;;14.70;89.20;;;;;;4861234;29;20056;-79
2021/09/26 01:26:25;;;;;;;1.35;1.00;;;14.70;89.20;;;;;;4857011;29;20048;-79
2021/09/26 01:29:02;;;;;;;1.08;0.95;;;14.70;89.10;;;;;;4867834;29;20096;-79
2021/09/26 01:31:33;;;;;;;1.63;1.02;;;14.70;89.20;;;;;;4847712;29;20041;-79
2021/09/26 01:34:02;;;;;;;;;;;14.70;89.30;;;;;;4846684;29;20029;-78
2021/09/26 01:36:44;;;;;;;1.27;0.90;;;14.60;89.20;;;;;;4863378;29;19908;-79
2021/09/26 01:39:21;;;;;;;1.50;0.80;;;14.60;89.20;;;;;;4831849;29;20496;-79
2021/09/26 01:41:56;;;;;;;1.23;0.88;;;14.60;89.20;;;;;;4878247;29;20063;-79
2021/09/26 01:44:39;;;;;;;1.85;1.08;;;14.60;89.20;;;;;;4878189;29;20057;-79
2021/09/26 01:47:09;;;;;;;1.45;0.80;;;14.50;89.30;;;;;;4878197;29;20139;-79
2021/09/26 01:49:40;;;;;;;1.17;0.80;;;14.50;89.30;;;;;;4878049;29;20991;-79
2021/09/26 01:52:12;;;;;;;1.80;1.13;;;14.50;89.40;;;;;;4845319;29;20048;-79
2021/09/26 01:54:38;;;;;;;1.38;0.98;;;14.40;89.40;;;;;;4861751;29;20068;-78
2021/09/26 01:57:04;;;;;;;1.67;1.20;;;14.40;89.40;;;;;;4846154;29;20041;-79
2021/09/26 01:59:31;;;;;;;1.80;1.13;;;14.40;89.40;;;;;;4831261;29;20075;-78
2021/09/26 02:01:58;;;;;;;2.25;1.42;;;14.30;89.50;;;;;;4845822;29;20045;-78
2021/09/26 02:04:25;;;;;;;1.90;1.00;;;14.30;89.60;;;;;;4845804;29;20080;-79
2021/09/26 02:06:53;;;;;;;1.83;1.10;;;14.40;89.60;;;;;;4861447;29;20098;-79
2021/09/26 02:09:19;;;;;;;1.40;1.02;;;14.40;89.60;;;;;;4878475;29;20572;-79
2021/09/26 02:11:46;;;;;;;2.17;1.25;;;14.20;89.40;;;;;;4859851;29;20412;-79
2021/09/26 02:14:13;;;;;;;1.30;0.88;;;14.30;89.50;;;;;;4861414;29;20100;-79
2021/09/26 02:16:39;;;;;;;2.05;1.10;;;14.30;89.60;;;;;;4861482;29;20041;-79
2021/09/26 02:19:07;;;;;;;1.50;1.20;;;14.30;89.80;;;;;;4861643;29;20506;-79
2021/09/26 02:21:33;;;;;;;2.08;1.30;;;14.20;89.50;;;;;;4861867;29;20120;-79
2021/09/26 02:24:00;;;;;;;1.92;1.10;;;14.30;89.70;;;;;;4878643;29;20053;-79
2021/09/26 02:26:27;;;;;;;1.58;1.05;;;14.20;89.70;;;;;;4845805;29;20100;-79
2021/09/26 02:28:52;;;;;;;1.92;1.25;;;14.10;89.60;;;;;;4861418;29;20029;-79
2021/09/26 02:31:20;;;;;;;4.30;1.40;;;14.20;89.70;;;;;;4878243;29;20041;-79
2021/09/26 02:33:46;;;;;;;2.25;1.10;;;14.20;89.80;;;;;;4846591;29;20056;-79
2021/09/26 02:36:13;;;;;;;1.85;1.30;;;14.20;89.70;;;;;;4847142;29;20052;-79
2021/09/26 02:38:40;;;;;;;1.60;1.10;;;14.20;89.80;;;;;;4898251;29;20056;-79
2021/09/26 02:41:34;;;;;;;1.98;1.23;;;14.20;89.80;;;;;;4880412;29;20052;-79
2021/09/26 02:44:16;;;;;;;2.15;1.20;;;14.20;89.80;;;;;;4863282;29;20056;-79
2021/09/26 02:46:47;;;;;;;1.52;1.00;;;14.10;89.80;;;;;;4878381;29;20052;-78
2021/09/26 02:49:13;;;;;;;1.52;1.10;;;14.10;89.70;;;;;;4861099;29;20984;-79
2021/09/26 02:51:40;;;;;;;0.98;0.80;;;14.10;89.70;;;;;;4861857;29;20404;-79
2021/09/26 02:54:08;;;;;;;1.02;0.85;;;14.10;89.70;;;;;;4841661;29;20128;-79
2021/09/26 02:56:34;;;;;;;1.50;0.95;;;14.00;89.70;;;;;;4842859;29;20101;-79
2021/09/26 02:59:00;;;;;;;1.60;0.95;;;14.00;89.70;;;;;;4877859;29;20484;-79
2021/09/26 03:01:27;;;;;;;1.38;1.00;;;14.10;89.80;;;;;;4860920;29;20484;-79
2021/09/26 03:04:00;;;;;;;1.30;1.20;;;14.10;89.80;;;;;;4862768;29;20080;-79
2021/09/26 03:06:26;;;;;;;1.27;1.10;;;14.10;89.90;;;;;;4863033;29;20033;-79
2021/09/26 03:08:52;;;;;;;3.15;1.58;;;14.10;89.80;;;;;;4864443;29;20063;-79
2021/09/26 03:11:18;;;;;;;1.15;1.00;;;14.10;89.80;;;;;;4864902;29;20476;-79
2021/09/26 03:13:43;;;;;;;1.48;1.00;;;14.10;89.70;;;;;;4864344;29;20041;-79
2021/09/26 03:16:09;;;;;;;1.30;0.80;;;14.10;89.70;;;;;;4865315;29;20508;-80
2021/09/26 03:18:35;;;;;;;1.20;1.10;;;14.10;89.70;;;;;;4854583;29;20041;-81
2021/09/26 03:21:01;;;;;;;2.22;1.38;;;14.10;89.70;;;;;;4884043;29;20519;-81
2021/09/26 03:23:26;;;;;;;2.00;1.20;;;14.10;89.70;;;;;;4865579;29;20036;-81
2021/09/26 03:25:52;;;;;;;2.25;1.38;;;14.10;89.70;;;;;;4881485;29;20052;-80
2021/09/26 03:28:18;;;;;;;2.15;1.23;;;14.10;89.80;;;;;;4865876;29;20080;-80
2021/09/26 03:30:44;;;;;;;2.33;1.27;;;14.10;89.80;;;;;;4865884;29;20129;-80
2021/09/26 03:33:10;;;;;;;2.15;1.33;;;14.00;89.70;;;;;;4865888;29;20047;-80
2021/09/26 03:35:37;;;;;;;1.05;0.90;;;14.10;89.80;;;;;;4884601;29;20049;-80
2021/09/26 03:38:03;;;;;;;1.42;1.08;;;14.10;89.80;;;;;;4868205;29;20107;-80
2021/09/26 03:40:29;;;;;;;1.70;0.98;;;14.20;89.80;;;;;;4853669;29;20118;-80
2021/09/26 03:42:55;;;;;;;0.95;0.85;;;14.20;89.80;;;;;;4850027;29;20149;-80
2021/09/26 03:45:21;;;;;;;1.23;1.00;;;14.20;89.70;;;;;;4865760;29;20564;-80
2021/09/26 03:47:47;;;;;;;1.60;1.15;;;14.20;89.70;;;;;;4850005;29;20630;-79
2021/09/26 03:50:13;;;;;;;2.47;1.17;;;14.20;89.70;;;;;;4860328;29;20053;-79
2021/09/26 03:52:39;;;;;;;1.73;1.02;;;14.20;89.70;;;;;;4881999;29;20056;-80
2021/09/26 03:55:08;;;;;;;1.60;1.00;;;14.20;89.70;;;;;;4849877;29;20053;-80
2021/09/26 03:57:34;;;;;;;1.67;1.00;;;14.20;89.70;;;;;;4865433;29;20101;-80
2021/09/26 03:59:59;;;;;;;1.30;1.05;;;14.30;89.70;;;;;;4864105;29;20405;-80
2021/09/26 04:02:25;;;;;;;2.03;1.40;;;14.20;89.60;;;;;;4865668;29;20043;-80
2021/09/26 04:04:51;;;;;;;1.75;1.08;;;14.30;89.70;;;;;;4865081;29;20069;-81
2021/09/26 04:07:16;;;;;;;1.67;1.02;;;14.30;89.70;;;;;;4850795;29;20444;-80
2021/09/26 04:09:42;;;;;;;1.08;0.80;;;14.30;89.70;;;;;;4850746;29;20041;-79
2021/09/26 04:12:08;;;;;;;1.33;1.00;;;14.40;89.70;;;;;;4866993;29;20068;-80
2021/09/26 04:14:34;;;;;;;2.30;1.27;;;14.30;89.60;;;;;;4865327;29;20037;-80
2021/09/26 04:17:00;;;;;;;0.93;0.80;;;14.30;89.70;;;;;;4882456;29;20085;-80
2021/09/26 04:19:25;;;;;;;1.10;1.00;;;14.30;89.70;;;;;;4834998;29;20060;-79
2021/09/26 04:21:51;;;;;;;1.60;1.05;;;14.30;89.70;;;;;;4864765;29;20156;-80
2021/09/26 04:24:18;;;;;;;1.10;0.85;;;14.30;89.70;;;;;;4849368;29;20045;-80
2021/09/26 04:26:44;;;;;;;1.58;1.10;;;14.30;89.70;;;;;;4883948;29;20385;-81
2021/09/26 04:29:10;;;;;;;2.10;1.20;;;14.30;89.80;;;;;;4865036;29;20045;-80
2021/09/26 04:31:36;;;;;;;2.88;1.30;;;14.30;89.80;;;;;;4865801;29;22055;-80
2021/09/26 04:34:02;;;;;;;2.15;1.20;;;14.30;89.80;;;;;;4881207;29;20052;-81
2021/09/26 04:36:27;;;;;;;2.22;1.10;;;14.30;89.80;;;;;;4849093;29;20037;-80
2021/09/26 04:38:53;;;;;;;0.88;0.80;;;14.20;89.80;;;;;;4881590;29;20496;-80
2021/09/26 04:41:19;;;;;;;1.75;1.25;;;14.30;89.80;;;;;;4880730;29;20051;-80
2021/09/26 04:43:44;;;;;;;1.48;1.08;;;14.30;89.80;;;;;;4862876;29;20052;-80
2021/09/26 04:46:10;;;;;;;1.50;1.00;;;14.30;89.80;;;;;;4865105;29;20037;-80
2021/09/26 04:48:36;;;;;;;2.08;1.02;;;14.30;89.80;;;;;;4865477;29;20045;-80
2021/09/26 04:51:01;;;;;;;1.42;0.82;;;14.30;89.80;;;;;;4848851;29;20060;-80
2021/09/26 04:53:27;;;;;;;1.38;0.88;;;14.30;89.90;;;;;;4864605;29;20514;-79
2021/09/26 04:55:53;;;;;;;1.10;0.80;;;14.40;89.90;;;;;;4863625;29;20135;-79
2021/09/26 04:58:18;;;;;;;1.20;0.90;;;14.30;89.80;;;;;;4864714;29;20040;-79
2021/09/26 05:00:46;;;;;;;1.30;0.85;;;14.40;89.90;;;;;;4867045;29;20033;-79
2021/09/26 05:03:13;;;;;;;1.02;0.80;;;14.40;90.20;;;;;;4883253;29;20072;-79
2021/09/26 05:05:39;;;;;;;1.55;1.05;;;14.40;89.80;;;;;;4882008;29;20048;-79
2021/09/26 05:08:05;;;;;;;1.55;1.00;;;14.40;89.80;;;;;;4849899;29;20041;-79
2021/09/26 05:10:31;;;;;;;1.00;0.90;;;14.40;89.70;;;;;;4866864;29;20055;-79
2021/09/26 05:12:58;;;;;;;1.98;1.02;;;14.50;89.80;;;;;;4849920;29;20155;-80
2021/09/26 05:15:24;;;;;;;1.40;1.10;;;14.50;89.80;;;;;;4865614;29;20097;-79
2021/09/26 05:17:50;;;;;;;1.48;0.80;;;14.50;89.80;;;;;;4862500;29;20048;-79
2021/09/26 05:20:16;;;;;;;1.52;1.00;;;14.50;89.80;;;;;;4848166;29;20041;-79
2021/09/26 05:22:42;;;;;;;1.50;1.08;;;14.60;89.80;;;;;;4866397;29;20488;-79
2021/09/26 05:25:08;;;;;;;1.40;0.95;;;14.50;89.70;;;;;;4863898;29;20044;-80
2021/09/26 05:27:34;;;;;;;1.50;1.10;;;14.60;89.70;;;;;;4845346;29;20052;-80
2021/09/26 05:30:00;;;;;;;1.73;0.93;;;14.60;89.70;;;;;;4833027;29;20048;-80
2021/09/26 05:32:25;;;;;;;1.75;1.10;;;14.60;89.70;;;;;;4880416;29;20500;-79
2021/09/26 05:34:51;;;;;;;1.70;1.00;;;14.60;89.60;;;;;;4881208;29;20029;-80
2021/09/26 05:37:17;;;;;;;1.05;0.95;;;14.70;89.70;;;;;;4865741;29;20033;-80
2021/09/26 05:39:43;;;;;;;1.10;0.82;;;14.70;89.60;;;;;;4866701;29;20068;-79
2021/09/26 05:42:09;;;;;;;0.75;0.70;;;14.70;89.60;;;;;;4864974;29;20045;-80
2021/09/26 05:44:36;;;;;;;1.52;1.00;;;14.70;89.60;;;;;;4847573;29;20069;-80
2021/09/26 05:47:02;;;;;;;1.13;0.82;;;14.70;89.60;;;;;;4846400;29;20481;-81
2021/09/26 05:49:28;;;;;;;1.00;0.80;;;14.70;89.60;;;;;;4873415;29;20553;-81
2021/09/26 05:51:54;;;;;;;0.90;0.75;;;14.70;89.60;;;;;;4856096;29;20061;-81
2021/09/26 05:54:20;;;;;;;0.90;0.80;;;14.80;89.70;;;;;;4861354;29;20131;-81
2021/09/26 05:56:47;;;;;;;1.40;0.90;;;14.80;89.70;;;;;;4875042;29;20084;-81
2021/09/26 05:59:12;;;;;;;1.27;0.98;;;14.80;89.70;;;;;;4862759;29;20061;-82
2021/09/26 06:01:39;;;;;;;1.70;1.10;;;14.80;89.80;;;;;;4881066;29;20073;-81
2021/09/26 06:04:05;;;;;;;1.40;0.77;;;14.80;89.70;;;;;;4880230;29;20060;-81
2021/09/26 06:06:31;;;;;;;1.00;0.80;;;14.80;89.70;;;;;;4894553;29;20453;-81
2021/09/26 06:08:56;;;;;;;2.80;1.40;;;14.90;89.80;;;;;;4866037;29;20072;-81
2021/09/26 06:11:22;;;;;;;1.33;0.95;;;14.80;89.80;;;;;;4882155;29;20037;-81
2021/09/26 06:13:48;;;;;;;1.60;1.00;;;14.80;89.70;;;;;;4881668;29;20108;-81
2021/09/26 06:16:14;;;;;;;2.35;1.15;;;15.00;89.90;;;;;;4897416;29;20055;-81
2021/09/26 06:18:39;;;;;;;1.00;0.82;;;15.00;89.80;;;;;;4879519;29;20041;-80
2021/09/26 06:21:05;;;;;;;1.77;0.90;;;14.90;89.80;;;;;;4864454;29;20120;-81
2021/09/26 06:23:31;;;;;;;1.42;0.90;;;14.90;89.70;;;;;;4879394;29;20109;-80
2021/09/26 06:25:58;;;;;;;0.98;0.85;;;15.00;89.70;;;;;;4864821;29;20081;-82
2021/09/26 06:28:24;;;;;;;1.33;0.90;;;15.00;89.70;;;;;;4879452;29;20037;-81
2021/09/26 06:30:50;;;;;;;1.08;0.85;;;15.00;89.70;;;;;;4878902;29;20124;-82
2021/09/26 06:33:16;;;;;;;1.05;0.93;;;15.00;89.70;;;;;;4878999;29;20053;-81
2021/09/26 06:35:41;;;;;;;1.25;0.70;;;15.10;89.70;;;;;;4879730;29;20040;-81
2021/09/26 06:38:07;;;;;;;1.42;1.02;;;15.10;89.80;;;;;;4876432;29;20074;-82
2021/09/26 06:40:33;;;;;;;1.20;0.80;;;15.10;89.80;;;;;;4840075;29;20045;-82
2021/09/26 06:42:59;;;;;;;1.02;0.90;;;15.20;89.80;;;;;;4846126;29;20041;-82
2021/09/26 06:45:25;;;;;;;1.58;1.08;;;15.20;89.80;;;;;;4876564;29;20021;-82
2021/09/26 06:47:51;;;;;;;0.95;0.85;;;15.30;89.80;;;;;;4874363;29;20194;-82
2021/09/26 06:50:17;;;;;;;1.40;0.90;;;15.30;89.80;;;;;;4858155;29;20057;-83
2021/09/26 06:52:42;;;;;;;1.40;1.10;;;15.40;89.70;;;;;;4893112;29;20069;-83
2021/09/26 06:55:09;;;;;;;1.75;1.20;;;15.40;89.70;;;;;;4874630;29;20053;-83
2021/09/26 06:57:34;;;;;;;1.55;1.15;;;15.40;89.70;;;;;;4860488;29;20036;-82
2021/09/26 07:00:01;;;;;;;1.05;0.95;;;15.40;89.60;;;;;;4861076;29;20600;-83
2021/09/26 07:02:27;;;;;;;1.08;0.88;;;15.50;89.60;;;;;;4846786;29;20041;-82
2021/09/26 07:04:53;;;;;;;1.45;0.93;;;15.50;89.60;;;;;;4892828;29;20072;-82
2021/09/26 07:07:22;;;;;;;0.95;0.80;;;15.60;89.60;;;;;;4874027;29;20073;-82
2021/09/26 07:09:49;;;;;;;2.75;1.10;;;15.70;89.50;;;;;;4855331;29;20079;-83
2021/09/26 07:12:17;;;;;;;1.58;1.08;;;15.80;89.40;;;;;;4873456;29;20121;-82
2021/09/26 07:14:44;;;;;;;1.67;1.20;;;15.80;89.40;;;;;;4858370;29;20045;-83
2021/09/26 07:17:10;;;;;;;1.15;0.90;;;15.80;89.30;;;;;;4892340;29;20589;-83
2021/09/26 07:19:36;;;;;;;1.42;0.98;;;15.90;89.30;;;;;;4890110;29;20045;-83
2021/09/26 07:22:02;;;;;;;1.15;0.85;;;15.90;89.20;;;;;;4874167;29;20109;-82
2021/09/26 07:24:28;;;;;;;1.00;0.90;;;16.00;89.20;;;;;;4888285;29;20081;-82
2021/09/26 07:26:54;;;;;;;1.73;0.80;;;16.10;89.20;;;;;;4871232;29;20045;-83
2021/09/26 07:29:20;;;;;;;1.90;1.10;;;16.10;89.10;;;;;;4853487;29;20097;-83
2021/09/26 07:31:46;;;;;;;0.90;0.85;;;16.10;89.10;;;;;;4884877;29;20047;-83
2021/09/26 07:34:12;;;;;;;1.25;0.98;;;16.20;89.10;;;;;;4888734;29;20093;-83
2021/09/26 07:36:38;;;;;;;1.55;1.00;;;16.30;89.10;;;;;;4886663;29;20033;-83
2021/09/26 07:39:05;;;;;;;1.10;1.00;;;16.30;89.10;;;;;;4865733;29;20097;-82
2021/09/26 07:41:30;;;;;;;1.13;0.93;;;16.30;89.00;;;;;;4851132;29;20069;-83
2021/09/26 07:43:57;;;;;;;1.63;1.00;;;16.40;89.10;;;;;;4869922;29;20067;-83
2021/09/26 07:46:23;;;;;;;0.77;0.77;;;16.50;89.10;;;;;;4853804;29;20048;-83
2021/09/26 07:48:49;;;;;;;1.25;1.08;;;16.50;89.00;;;;;;4868448;29;20045;-82
2021/09/26 07:51:15;;;;;;;2.25;1.30;;;16.70;89.00;;;;;;4888968;29;20460;-83
2021/09/26 07:53:41;;;;;;;1.15;0.95;;;16.70;89.00;;;;;;4871256;29;20052;-83
2021/09/26 07:56:07;;;;;;;1.20;0.98;;;16.70;88.90;;;;;;4888745;29;20037;-83
2021/09/26 07:58:37;;;;;;;1.17;1.00;;;16.80;88.90;;;;;;4888872;29;20089;-83
2021/09/26 08:01:03;;;;;;;1.88;1.40;;;16.90;88.90;;;;;;4867637;29;20136;-82
2021/09/26 08:03:29;;;;;;;1.42;1.10;;;17.00;88.80;;;;;;4885554;29;20104;-83
2021/09/26 08:05:55;;;;;;;1.73;1.23;;;17.00;88.60;;;;;;4852176;29;20054;-83
2021/09/26 08:08:22;;;;;;;2.20;1.55;;;17.10;88.60;;;;;;4835244;29;20037;-83
2021/09/26 08:10:47;;;;;;;1.70;1.30;;;17.10;88.50;;;;;;4850573;29;20049;-83
2021/09/26 08:13:15;;;;;;;1.55;1.17;;;17.20;88.50;;;;;;4882428;29;20065;-82
2021/09/26 08:15:41;;;;;;;1.55;1.17;;;17.30;88.60;;;;;;4866491;29;20049;-82
2021/09/26 08:18:06;;;;;;;1.55;1.40;;;17.40;88.40;;;;;;4883814;29;20070;-83
2021/09/26 08:20:32;;;;;;;2.15;1.48;;;17.50;88.20;;;;;;4883992;29;20040;-83
2021/09/26 08:22:58;;;;;;;2.90;2.00;;;17.50;88.10;;;;;;4865422;29;20499;-82
2021/09/26 08:25:24;;;;;;;3.58;2.15;;;17.60;88.10;;;;;;4866926;29;20070;-82
2021/09/26 08:27:51;;;;;;;3.50;2.00;;;17.70;88.10;;;;;;4882645;29;20121;-81
2021/09/26 08:30:18;;;;;;;2.17;1.67;;;17.70;88.10;;;;;;4867056;29;20125;-79
2021/09/26 08:32:46;;;;;;;1.80;1.55;;;17.70;88.00;;;;;;4886582;29;20037;-79
2021/09/26 08:35:12;;;;;;;2.58;1.65;;;17.80;88.00;;;;;;4871850;29;20423;-79
2021/09/26 08:37:38;;;;;;;2.00;1.58;;;17.80;87.90;;;;;;4854097;29;20049;-78
2021/09/26 08:40:06;;;;;;;2.67;1.80;;;17.90;87.90;;;;;;4838239;29;20070;-79
2021/09/26 08:42:34;;;;;;;1.20;1.10;;;18.00;87.90;;;;;;4851102;29;20057;-79
2021/09/26 08:45:01;;;;;;;2.38;1.73;;;18.10;87.90;;;;;;4882778;29;20485;-79
2021/09/26 08:47:27;;;;;;;3.25;1.88;;;18.10;87.90;;;;;;4855782;29;20069;-79
2021/09/26 08:49:54;;;;;;;2.72;1.85;;;18.20;87.70;;;;;;4865798;29;20468;-79
2021/09/26 08:52:20;;;;;;;3.70;1.98;;;18.10;87.70;;;;;;4885167;29;20045;-79
2021/09/26 08:54:46;;;;;;;2.35;1.67;;;18.30;87.70;;;;;;4865553;29;20101;-79
2021/09/26 08:57:12;;;;;;;3.70;2.30;;;18.40;87.70;;;;;;4864833;29;20052;-81
2021/09/26 08:59:38;;;;;;;4.45;2.53;;;18.30;87.60;;;;;;4848005;29;20056;-81
2021/09/26 09:02:04;;;;;;;2.92;2.08;;;18.40;87.70;;;;;;4848444;29;20056;-82
2021/09/26 09:04:35;;;;;;;3.47;2.10;;;18.40;87.70;;;;;;4882088;29;20092;-82
2021/09/26 09:07:04;;;;;;;4.00;2.35;;;18.50;87.70;;;;;;4846066;29;20043;-80
2021/09/26 09:09:29;;;;;;;5.18;2.40;;;18.70;87.50;;;;;;4862619;29;20041;-80
2021/09/26 09:12:10;;;;;;;4.00;2.58;;;18.70;87.50;;;;;;4863857;29;20029;-78
2021/09/26 09:14:57;;;;;;;3.65;2.30;;;18.80;87.50;;;;;;4864620;29;20049;-79
2021/09/26 09:17:26;;;;;;;3.35;2.40;;;18.80;87.40;;;;;;4879994;29;20033;-84
2021/09/26 09:20:23;;;;;;;4.15;2.50;;;18.80;87.30;;;;;;4862709;29;20136;-85
2021/09/26 09:23:17;;;;;;;4.57;2.80;;;18.90;87.30;;;;;;4880485;29;20115;-86
2021/09/26 09:30:39;;;;;;;4.50;3.08;;;19.00;87.20;;;;;;4820254;29;20137;-83
2021/09/26 09:59:07;;;;;;;4.80;2.97;;;19.40;86.70;;;;;;4461708;32;20074;-85
2021/09/26 10:01:36;;;;;;;3.95;2.88;;;19.50;86.60;;;;;;4443230;32;20057;-82
2021/09/26 10:04:06;;;;;;;4.43;2.88;;;19.60;86.60;;;;;;4407106;32;20140;-83
2021/09/26 10:06:40;;;;;;;4.20;2.70;;;19.70;86.60;;;;;;4421061;32;20057;-84
2021/09/26 10:12:08;;;;;;;2.90;2.30;;;19.90;86.20;;;;;;4491421;31;20078;-81
2021/09/26 10:14:56;;;;;;;4.05;2.63;;;20.00;86.00;;;;;;4478531;31;20051;-83
2021/09/26 11:03:53;;;;;;;5.18;3.10;;;20.80;85.10;;;;;;4815700;29;20106;-82
2021/09/26 11:10:53;;;;;;;4.45;3.15;;;20.90;85.00;;;;;;4754713;29;20138;-79
2021/09/26 11:16:18;;;;;;;4.03;2.72;;;21.00;84.80;;;;;;4786126;29;20511;-82
2021/09/26 11:22:10;;;;;;;5.70;4.35;;;21.10;84.60;;;;;;4718578;30;20048;-81
2021/09/26 11:24:45;;;;;;;5.55;3.90;;;21.20;84.50;;;;;;4716840;30;20559;-82
2021/09/26 11:27:43;;;;;;;6.43;3.70;;;21.20;84.40;;;;;;4701232;30;20082;-85
2021/09/26 11:30:15;;;;;;;4.55;3.53;;;21.40;84.30;;;;;;4691611;30;20405;-84
2021/09/26 11:33:10;;;;;;;6.53;3.78;;;21.40;84.10;;;;;;4735785;30;20079;-84
2021/09/26 11:35:37;;;;;;;4.80;3.50;;;21.60;84.10;;;;;;4733721;30;20049;-84
2021/09/26 11:38:41;;;;;;;5.10;3.60;;;21.50;83.90;;;;;;4768832;30;20495;-86
2021/09/26 11:41:58;;;;;;;4.63;3.45;;;21.60;83.90;;;;;;4753953;30;20051;-85
2021/09/26 11:44:47;;;;;;;3.90;2.83;;;21.70;83.60;;;;;;4753017;30;20112;-86
2021/09/26 11:47:16;;;;;;;4.80;3.60;;;21.90;83.60;;;;;;4756182;30;20039;-87
2021/09/26 11:49:47;;;;;;;5.10;3.55;;;21.90;83.40;;;;;;4787141;29;20090;-86
2021/09/26 11:52:22;;;;;;;5.03;3.50;;;21.90;83.20;;;;;;4789457;29;20515;-82
2021/09/26 11:55:11;;;;;;;4.32;3.35;;;21.90;83.10;;;;;;4771555;30;20051;-83
2021/09/26 11:57:37;;;;;;;4.72;3.50;;;21.90;83.10;;;;;;4764309;30;20040;-82
2021/09/26 12:00:07;;;;;;;4.20;3.20;;;22.00;83.10;;;;;;4734126;30;20069;-80
2021/09/26 12:02:34;;;;;;;3.75;2.58;;;22.00;83.20;;;;;;4734589;30;20057;-81
2021/09/26 12:08:39;;;;;;;3.83;2.72;;;22.30;82.70;;;;;;4750310;29;20564;-82
2021/09/26 12:11:07;;;;;;;4.90;3.45;;;22.40;82.20;;;;;;4776953;29;20492;-83
2021/09/26 12:13:48;;;;;;;4.47;3.45;;;22.60;82.00;;;;;;4776223;29;20545;-84
2021/09/26 12:16:44;;;;;;;3.78;3.00;;;22.50;81.90;;;;;;4775011;29;20411;-82
2021/09/26 12:26:40;;;;;;;3.50;2.60;;;22.70;81.90;;;;;;4880524;29;19953;-83
2021/09/26 12:40:54;;;;;;;3.15;2.40;;;22.60;81.70;;;;;;4793970;29;20488;-84
2021/09/26 12:46:51;;;;;;;4.30;3.15;;;22.90;81.30;;;;;;4697834;30;20064;-86
2021/09/26 12:55:31;;;;;;;2.75;1.95;;;22.60;81.70;;;;;;4644995;30;20141;-84
2021/09/26 12:57:59;;;;;;;2.35;1.90;;;22.50;82.00;;;;;;4634273;30;20105;-87
2021/09/26 13:06:57;;;;;;;2.83;2.05;;;22.50;82.50;;;;;;4597851;31;20089;-86
2021/09/26 13:09:36;;;;;;;3.00;2.25;;;22.50;82.20;;;;;;4596172;31;20052;-83
2021/09/26 13:12:34;;;;;;;3.25;2.30;;;22.50;82.10;;;;;;4611083;31;20043;-82
2021/09/26 13:15:16;;;;;;;2.75;2.00;;;22.50;82.00;;;;;;4643292;30;20484;-83
2021/09/26 13:17:46;;;;;;;4.70;2.40;;;22.50;82.10;;;;;;4647566;30;20055;-82
2021/09/26 13:24:00;;;;;;;2.85;2.22;;;22.50;82.20;;;;;;4664540;30;20142;-84
2021/09/26 13:26:37;;;;;;;3.72;2.47;;;22.50;82.10;;;;;;4679443;30;20102;-83
2021/09/26 13:30:00;;;;;;;3.95;2.72;;;22.50;81.90;;;;;;4672232;30;20049;-85
2021/09/26 13:32:31;;;;;;;3.92;2.35;;;22.50;81.90;;;;;;4679947;30;20069;-81
2021/09/26 13:35:05;;;;;;;2.67;2.17;;;22.50;81.90;;;;;;4727620;30;20607;-86
2021/09/26 13:38:16;;;;;;;3.13;2.35;;;22.50;81.90;;;;;;4718164;30;20200;-86
2021/09/26 13:41:30;;;;;;;3.08;2.30;;;22.50;81.90;;;;;;4696589;30;20457;-82
2021/09/26 13:49:20;;;;;;;2.83;2.13;;;22.70;81.20;;;;;;4682477;30;20124;-85
2021/09/26 13:51:49;;;;;;;3.30;2.65;;;22.70;81.10;;;;;;4644706;30;20047;-85
2021/09/26 13:54:15;;;;;;;3.80;2.95;;;22.60;80.80;;;;;;4617854;30;20522;-82
2021/09/26 13:57:21;;;;;;;3.30;2.55;;;22.70;80.70;;;;;;4666924;30;20051;-84
2021/09/26 14:03:11;;;;;;;4.30;2.65;;;22.70;80.70;;;;;;4674758;30;20053;-81
2021/09/26 14:05:38;;;;;;;2.88;2.20;;;22.60;80.60;;;;;;4697387;30;20050;-85
2021/09/26 14:08:04;;;;;;;2.63;2.10;;;22.70;80.70;;;;;;4711621;30;20049;-84
2021/09/26 14:10:30;;;;;;;3.50;2.47;;;22.60;80.70;;;;;;4696950;30;20057;-86
2021/09/26 14:12:56;;;;;;;2.55;2.00;;;22.80;80.70;;;;;;4714326;30;20504;-86
2021/09/26 14:15:22;;;;;;;3.03;2.38;;;22.70;80.60;;;;;;4766025;30;20044;-86
2021/09/26 14:17:50;;;;;;;2.78;2.00;;;22.80;80.60;;;;;;4751101;30;20075;-86
2021/09/26 14:20:23;;;;;;;2.15;1.60;;;22.90;80.60;;;;;;4735670;30;20478;-83
2021/09/26 14:22:49;;;;;;;3.45;2.28;;;22.80;80.60;;;;;;4769657;29;20057;-82
2021/09/26 14:25:15;;;;;;;3.10;2.13;;;22.80;80.60;;;;;;4804872;29;20043;-80
2021/09/26 14:31:42;;;;;;;;;;;22.80;80.70;;;;;;4790604;29;20476;-84
2021/09/26 14:38:15;;;;;;;3.70;2.53;;;22.60;81.00;;;;;;4804493;29;20514;-89
2021/09/26 14:40:54;;;;;;;3.00;2.25;;;22.60;81.00;;;;;;4787392;29;20074;-86
2021/09/26 14:43:22;;;;;;;3.38;2.35;;;22.50;81.00;;;;;;4766575;29;20083;-86
2021/09/26 14:45:54;;;;;;;3.28;2.55;;;22.50;81.00;;;;;;4753468;30;20051;-84
2021/09/26 14:48:26;;;;;;;3.90;2.80;;;22.50;81.00;;;;;;4749129;30;20179;-86
2021/09/26 14:51:19;;;;;;;3.97;2.78;;;22.40;81.10;;;;;;4763707;30;20045;-84
2021/09/26 14:53:49;;;;;;;4.57;3.22;;;22.30;81.20;;;;;;4786426;30;20056;-82
2021/09/26 14:56:19;;;;;;;3.87;2.80;;;22.20;81.30;;;;;;4784531;30;20039;-80
2021/09/26 14:58:46;;;;;;;4.38;3.03;;;22.10;81.50;;;;;;4767891;30;20035;-82
2021/09/26 15:01:12;;;;;;;3.40;2.65;;;22.20;81.70;;;;;;4759325;30;20060;-80
2021/09/26 15:03:45;;;;;;;3.67;2.72;;;22.00;81.60;;;;;;4791383;29;20143;-84
2021/09/26 15:06:16;;;;;;;3.75;2.83;;;22.00;81.70;;;;;;4762402;29;20062;-87
2021/09/26 15:08:42;;;;;;;4.78;3.40;;;22.00;81.70;;;;;;4733178;30;20048;-83
2021/09/26 15:11:12;;;;;;;3.80;2.88;;;22.00;81.70;;;;;;4774045;30;20059;-86
2021/09/26 15:13:38;;;;;;;4.38;3.22;;;22.10;81.70;;;;;;4721521;30;20036;-80
2021/09/26 15:16:04;;;;;;;4.00;3.08;;;22.00;81.40;;;;;;4734234;30;20443;-78
2021/09/26 15:18:35;;;;;;;5.53;3.80;;;22.10;81.40;;;;;;4733037;30;20493;-85
2021/09/26 15:21:04;;;;;;;;;;;22.10;81.20;;;;;;4740332;30;20045;-83
2021/09/26 15:23:30;;;;;;;5.00;3.88;;;22.10;81.10;;;;;;4771524;29;19917;-83
2021/09/26 15:25:56;;;;;;;3.63;3.00;;;22.10;81.00;;;;;;4808766;29;20058;-83
2021/09/26 15:31:26;;;;;;;4.10;3.10;;;22.00;80.90;;;;;;4766935;30;20102;-84
2021/09/26 15:38:03;;;;;;;3.92;2.92;;;22.00;81.10;;;;;;4747212;30;20140;-87